sensor_id;sensor_type;location;lat;lon;timestamp;P1;durP1;ratioP1;P2;durP2;ratioP2
31482;SDS011;18103;52.246;8.052;2023-02-26T00:02:15;1.97;;;1.20;;
31482;SDS011;18103;52.246;8.052;2023-02-26T00:04:40;8.07;;;1.20;;
31482;SDS011;18103;52.246;8.052;2023-02-26T00:07:05;6.87;;;1.20;;
31482;SDS011;18103;52.246;8.052;2023-02-26T00:09:31;5.40;;;1.30;;
31482;SDS011;18103;52.246;8.052;2023-02-26T00:11:57;1.40;;;1.00;;
31482;SDS011;18103;52.246;8.052;2023-02-26T00:14:24;3.38;;;1.27;;
31482;SDS011;18103;52.246;8.052;2023-02-26T00:16:54;2.20;;;1.23;;
31482;SDS011;18103;52.246;8.052;2023-02-26T00:19:41;6.60;;;1.50;;
31482;SDS011;18103;52.246;8.052;2023-02-26T00:22:06;5.30;;;1.47;;
31482;SDS011;18103;52.246;8.052;2023-02-26T00:24:32;3.83;;;1.20;;
31482;SDS011;18103;52.246;8.052;2023-02-26T00:26:57;9.00;;;1.57;;
31482;SDS011;18103;52.246;8.052;2023-02-26T00:29:24;7.00;;;1.83;;
31482;SDS011;18103;52.246;8.052;2023-02-26T00:31:50;11.60;;;1.77;;
31482;SDS011;18103;52.246;8.052;2023-02-26T00:34:15;7.50;;;2.40;;
31482;SDS011;18103;52.246;8.052;2023-02-26T00:41:48;12.98;;;3.33;;
31482;SDS011;18103;52.246;8.052;2023-02-26T00:44:14;11.33;;;2.73;;
31482;SDS011;18103;52.246;8.052;2023-02-26T00:46:43;14.23;;;3.80;;
31482;SDS011;18103;52.246;8.052;2023-02-26T00:52:12;7.18;;;2.92;;
31482;SDS011;18103;52.246;8.052;2023-02-26T00:54:42;8.02;;;1.88;;
31482;SDS011;18103;52.246;8.052;2023-02-26T00:57:08;7.10;;;2.00;;
31482;SDS011;18103;52.246;8.052;2023-02-26T00:59:33;9.17;;;1.83;;
31482;SDS011;18103;52.246;8.052;2023-02-26T01:01:59;5.30;;;2.20;;
31482;SDS011;18103;52.246;8.052;2023-02-26T01:04:24;3.83;;;1.80;;
31482;SDS011;18103;52.246;8.052;2023-02-26T01:06:51;4.27;;;1.40;;
31482;SDS011;18103;52.246;8.052;2023-02-26T01:11:56;2.67;;;1.63;;
31482;SDS011;18103;52.246;8.052;2023-02-26T01:14:27;4.10;;;1.63;;
31482;SDS011;18103;52.246;8.052;2023-02-26T01:22:22;3.38;;;1.38;;
31482;SDS011;18103;52.246;8.052;2023-02-26T01:25:07;2.35;;;1.75;;
31482;SDS011;18103;52.246;8.052;2023-02-26T01:27:35;6.60;;;1.75;;
31482;SDS011;18103;52.246;8.052;2023-02-26T01:30:01;3.00;;;1.38;;
31482;SDS011;18103;52.246;8.052;2023-02-26T01:32:45;5.35;;;1.48;;
31482;SDS011;18103;52.246;8.052;2023-02-26T01:38:15;3.63;;;1.33;;
31482;SDS011;18103;52.246;8.052;2023-02-26T01:49:15;1.83;;;1.10;;
31482;SDS011;18103;52.246;8.052;2023-02-26T01:54:13;1.45;;;1.02;;
31482;SDS011;18103;52.246;8.052;2023-02-26T01:56:40;1.23;;;1.00;;
31482;SDS011;18103;52.246;8.052;2023-02-26T01:59:09;1.88;;;0.77;;
31482;SDS011;18103;52.246;8.052;2023-02-26T02:01:38;4.28;;;1.02;;
31482;SDS011;18103;52.246;8.052;2023-02-26T02:04:05;7.80;;;1.75;;
31482;SDS011;18103;52.246;8.052;2023-02-26T02:06:35;1.55;;;0.75;;
31482;SDS011;18103;52.246;8.052;2023-02-26T02:09:04;2.10;;;1.63;;
31482;SDS011;18103;52.246;8.052;2023-02-26T02:11:31;1.17;;;0.90;;
31482;SDS011;18103;52.246;8.052;2023-02-26T02:27:18;3.08;;;1.85;;
31482;SDS011;18103;52.246;8.052;2023-02-26T02:30:34;4.53;;;1.17;;
31482;SDS011;18103;52.246;8.052;2023-02-26T02:33:11;8.27;;;1.38;;
31482;SDS011;18103;52.246;8.052;2023-02-26T02:35:43;6.00;;;1.40;;
31482;SDS011;18103;52.246;8.052;2023-02-26T02:38:24;8.60;;;1.10;;
31482;SDS011;18103;52.246;8.052;2023-02-26T02:41:01;1.80;;;1.17;;
31482;SDS011;18103;52.246;8.052;2023-02-26T02:43:32;3.10;;;0.95;;
31482;SDS011;18103;52.246;8.052;2023-02-26T02:46:04;4.63;;;1.58;;
31482;SDS011;18103;52.246;8.052;2023-02-26T02:48:59;6.43;;;1.55;;
31482;SDS011;18103;52.246;8.052;2023-02-26T02:51:31;2.95;;;1.15;;
31482;SDS011;18103;52.246;8.052;2023-02-26T02:54:04;2.92;;;1.08;;
31482;SDS011;18103;52.246;8.052;2023-02-26T02:56:39;2.85;;;1.35;;
31482;SDS011;18103;52.246;8.052;2023-02-26T02:59:11;2.08;;;1.10;;
31482;SDS011;18103;52.246;8.052;2023-02-26T03:01:57;5.35;;;1.23;;
31482;SDS011;18103;52.246;8.052;2023-02-26T03:04:28;3.80;;;1.15;;
31482;SDS011;18103;52.246;8.052;2023-02-26T03:06:53;1.17;;;0.77;;
31482;SDS011;18103;52.246;8.052;2023-02-26T03:09:19;3.63;;;1.33;;
31482;SDS011;18103;52.246;8.052;2023-02-26T03:11:44;1.10;;;1.00;;
31482;SDS011;18103;52.246;8.052;2023-02-26T03:14:10;2.30;;;0.93;;
31482;SDS011;18103;52.246;8.052;2023-02-26T03:22:16;3.92;;;0.85;;
31482;SDS011;18103;52.246;8.052;2023-02-26T03:29:52;2.60;;;1.08;;
31482;SDS011;18103;52.246;8.052;2023-02-26T03:32:25;1.52;;;0.82;;
31482;SDS011;18103;52.246;8.052;2023-02-26T03:35:14;3.53;;;1.13;;
31482;SDS011;18103;52.246;8.052;2023-02-26T03:37:47;2.05;;;0.70;;
31482;SDS011;18103;52.246;8.052;2023-02-26T03:40:21;3.10;;;0.93;;
31482;SDS011;18103;52.246;8.052;2023-02-26T03:42:53;1.65;;;0.82;;
31482;SDS011;18103;52.246;8.052;2023-02-26T03:45:28;2.63;;;0.55;;
31482;SDS011;18103;52.246;8.052;2023-02-26T03:47:57;1.50;;;0.63;;
31482;SDS011;18103;52.246;8.052;2023-02-26T03:52:52;2.83;;;0.80;;
31482;SDS011;18103;52.246;8.052;2023-02-26T03:55:20;1.27;;;0.70;;
31482;SDS011;18103;52.246;8.052;2023-02-26T03:57:50;1.55;;;0.80;;
31482;SDS011;18103;52.246;8.052;2023-02-26T04:00:15;7.10;;;1.20;;
31482;SDS011;18103;52.246;8.052;2023-02-26T04:05:16;0.50;;;0.50;;
31482;SDS011;18103;52.246;8.052;2023-02-26T04:07:45;2.50;;;1.00;;
31482;SDS011;18103;52.246;8.052;2023-02-26T04:10:13;0.55;;;0.50;;
31482;SDS011;18103;52.246;8.052;2023-02-26T04:12:52;0.60;;;0.60;;
31482;SDS011;18103;52.246;8.052;2023-02-26T04:15:18;2.30;;;0.50;;
31482;SDS011;18103;52.246;8.052;2023-02-26T04:17:43;3.87;;;1.00;;
31482;SDS011;18103;52.246;8.052;2023-02-26T04:20:09;1.27;;;0.63;;
31482;SDS011;18103;52.246;8.052;2023-02-26T04:22:35;7.53;;;0.60;;
31482;SDS011;18103;52.246;8.052;2023-02-26T04:25:01;1.27;;;0.40;;
31482;SDS011;18103;52.246;8.052;2023-02-26T04:27:27;1.33;;;0.80;;
31482;SDS011;18103;52.246;8.052;2023-02-26T04:29:52;0.50;;;0.50;;
31482;SDS011;18103;52.246;8.052;2023-02-26T04:32:17;1.70;;;0.90;;
31482;SDS011;18103;52.246;8.052;2023-02-26T04:34:43;1.13;;;0.57;;
31482;SDS011;18103;52.246;8.052;2023-02-26T04:37:08;1.60;;;0.37;;
31482;SDS011;18103;52.246;8.052;2023-02-26T04:39:34;0.93;;;0.70;;
31482;SDS011;18103;52.246;8.052;2023-02-26T04:42:00;1.07;;;0.70;;
31482;SDS011;18103;52.246;8.052;2023-02-26T04:44:26;0.75;;;0.63;;
31482;SDS011;18103;52.246;8.052;2023-02-26T04:46:52;2.97;;;0.73;;
31482;SDS011;18103;52.246;8.052;2023-02-26T04:49:17;0.50;;;0.50;;
31482;SDS011;18103;52.246;8.052;2023-02-26T04:51:43;0.57;;;0.57;;
31482;SDS011;18103;52.246;8.052;2023-02-26T04:54:08;1.80;;;0.70;;
31482;SDS011;18103;52.246;8.052;2023-02-26T04:56:34;1.50;;;0.47;;
31482;SDS011;18103;52.246;8.052;2023-02-26T04:58:59;0.90;;;0.70;;
31482;SDS011;18103;52.246;8.052;2023-02-26T05:01:24;0.80;;;0.63;;
31482;SDS011;18103;52.246;8.052;2023-02-26T05:03:50;0.70;;;0.70;;
31482;SDS011;18103;52.246;8.052;2023-02-26T05:06:16;1.20;;;0.67;;
31482;SDS011;18103;52.246;8.052;2023-02-26T05:08:41;0.57;;;0.50;;
31482;SDS011;18103;52.246;8.052;2023-02-26T05:11:08;0.80;;;0.60;;
31482;SDS011;18103;52.246;8.052;2023-02-26T05:13:34;7.18;;;0.80;;
31482;SDS011;18103;52.246;8.052;2023-02-26T05:15:59;0.30;;;0.30;;
31482;SDS011;18103;52.246;8.052;2023-02-26T05:18:25;0.73;;;0.50;;
31482;SDS011;18103;52.246;8.052;2023-02-26T05:20:51;0.83;;;0.50;;
31482;SDS011;18103;52.246;8.052;2023-02-26T05:23:18;1.42;;;0.82;;
31482;SDS011;18103;52.246;8.052;2023-02-26T05:25:44;1.17;;;0.50;;
31482;SDS011;18103;52.246;8.052;2023-02-26T05:28:10;0.73;;;0.60;;
31482;SDS011;18103;52.246;8.052;2023-02-26T05:30:35;7.40;;;1.10;;
31482;SDS011;18103;52.246;8.052;2023-02-26T05:33:00;0.67;;;0.60;;
31482;SDS011;18103;52.246;8.052;2023-02-26T05:35:26;2.20;;;0.70;;
31482;SDS011;18103;52.246;8.052;2023-02-26T05:37:51;0.87;;;0.70;;
31482;SDS011;18103;52.246;8.052;2023-02-26T05:40:16;1.37;;;0.70;;
31482;SDS011;18103;52.246;8.052;2023-02-26T05:42:42;0.50;;;0.50;;
31482;SDS011;18103;52.246;8.052;2023-02-26T05:45:08;6.07;;;0.80;;
31482;SDS011;18103;52.246;8.052;2023-02-26T05:47:34;2.65;;;1.25;;
31482;SDS011;18103;52.246;8.052;2023-02-26T05:50:00;2.88;;;1.02;;
31482;SDS011;18103;52.246;8.052;2023-02-26T05:52:26;1.13;;;0.50;;
31482;SDS011;18103;52.246;8.052;2023-02-26T05:54:51;1.17;;;0.70;;
31482;SDS011;18103;52.246;8.052;2023-02-26T05:57:17;0.77;;;0.60;;
31482;SDS011;18103;52.246;8.052;2023-02-26T05:59:43;9.67;;;0.83;;
31482;SDS011;18103;52.246;8.052;2023-02-26T06:02:08;2.63;;;0.77;;
31482;SDS011;18103;52.246;8.052;2023-02-26T06:04:34;0.60;;;0.60;;
31482;SDS011;18103;52.246;8.052;2023-02-26T06:06:59;3.27;;;1.20;;
31482;SDS011;18103;52.246;8.052;2023-02-26T06:09:25;0.88;;;0.50;;
31482;SDS011;18103;52.246;8.052;2023-02-26T06:11:51;1.77;;;0.83;;
31482;SDS011;18103;52.246;8.052;2023-02-26T06:14:16;0.30;;;0.30;;
31482;SDS011;18103;52.246;8.052;2023-02-26T06:16:42;2.20;;;0.80;;
31482;SDS011;18103;52.246;8.052;2023-02-26T06:19:07;1.90;;;0.50;;
31482;SDS011;18103;52.246;8.052;2023-02-26T06:21:32;1.47;;;0.70;;
31482;SDS011;18103;52.246;8.052;2023-02-26T06:23:58;2.73;;;0.70;;
31482;SDS011;18103;52.246;8.052;2023-02-26T06:26:23;0.97;;;0.70;;
31482;SDS011;18103;52.246;8.052;2023-02-26T06:28:49;1.10;;;0.50;;
31482;SDS011;18103;52.246;8.052;2023-02-26T06:31:14;5.27;;;1.07;;
31482;SDS011;18103;52.246;8.052;2023-02-26T06:33:39;1.50;;;1.00;;
31482;SDS011;18103;52.246;8.052;2023-02-26T06:36:05;3.27;;;1.50;;
31482;SDS011;18103;52.246;8.052;2023-02-26T06:38:30;2.13;;;0.90;;
31482;SDS011;18103;52.246;8.052;2023-02-26T06:40:56;1.30;;;0.97;;
31482;SDS011;18103;52.246;8.052;2023-02-26T06:43:21;1.40;;;1.17;;
31482;SDS011;18103;52.246;8.052;2023-02-26T06:45:46;1.47;;;1.37;;
31482;SDS011;18103;52.246;8.052;2023-02-26T06:48:12;4.03;;;1.23;;
31482;SDS011;18103;52.246;8.052;2023-02-26T06:50:38;10.13;;;1.23;;
31482;SDS011;18103;52.246;8.052;2023-02-26T06:53:03;8.53;;;1.57;;
31482;SDS011;18103;52.246;8.052;2023-02-26T06:55:29;4.23;;;1.10;;
31482;SDS011;18103;52.246;8.052;2023-02-26T06:57:54;1.30;;;0.70;;
31482;SDS011;18103;52.246;8.052;2023-02-26T07:00:21;1.35;;;1.25;;
31482;SDS011;18103;52.246;8.052;2023-02-26T07:02:48;6.88;;;1.35;;
31482;SDS011;18103;52.246;8.052;2023-02-26T07:05:14;1.27;;;0.95;;
31482;SDS011;18103;52.246;8.052;2023-02-26T07:07:40;1.43;;;0.93;;
31482;SDS011;18103;52.246;8.052;2023-02-26T07:10:06;2.10;;;1.00;;
31482;SDS011;18103;52.246;8.052;2023-02-26T07:12:32;2.25;;;1.05;;
31482;SDS011;18103;52.246;8.052;2023-02-26T07:14:57;2.70;;;1.67;;
31482;SDS011;18103;52.246;8.052;2023-02-26T07:17:23;1.37;;;0.97;;
31482;SDS011;18103;52.246;8.052;2023-02-26T07:19:49;5.77;;;1.00;;
31482;SDS011;18103;52.246;8.052;2023-02-26T07:22:16;2.55;;;0.90;;
31482;SDS011;18103;52.246;8.052;2023-02-26T07:24:43;3.10;;;1.33;;
31482;SDS011;18103;52.246;8.052;2023-02-26T07:27:08;1.00;;;0.70;;
31482;SDS011;18103;52.246;8.052;2023-02-26T07:29:34;6.83;;;0.97;;
31482;SDS011;18103;52.246;8.052;2023-02-26T07:32:00;4.00;;;0.90;;
31482;SDS011;18103;52.246;8.052;2023-02-26T07:34:25;3.07;;;1.20;;
31482;SDS011;18103;52.246;8.052;2023-02-26T07:36:51;1.77;;;1.00;;
31482;SDS011;18103;52.246;8.052;2023-02-26T07:39:16;1.87;;;0.87;;
31482;SDS011;18103;52.246;8.052;2023-02-26T07:41:41;2.50;;;0.73;;
31482;SDS011;18103;52.246;8.052;2023-02-26T07:44:07;5.63;;;0.97;;
31482;SDS011;18103;52.246;8.052;2023-02-26T07:46:32;2.40;;;0.77;;
31482;SDS011;18103;52.246;8.052;2023-02-26T07:48:58;2.30;;;0.60;;
31482;SDS011;18103;52.246;8.052;2023-02-26T07:51:23;0.53;;;0.50;;
31482;SDS011;18103;52.246;8.052;2023-02-26T07:53:49;4.60;;;0.80;;
31482;SDS011;18103;52.246;8.052;2023-02-26T07:56:14;0.70;;;0.70;;
31482;SDS011;18103;52.246;8.052;2023-02-26T07:58:39;3.27;;;0.70;;
31482;SDS011;18103;52.246;8.052;2023-02-26T08:01:05;2.73;;;0.97;;
31482;SDS011;18103;52.246;8.052;2023-02-26T08:03:31;2.27;;;1.00;;
31482;SDS011;18103;52.246;8.052;2023-02-26T08:05:56;5.27;;;1.20;;
31482;SDS011;18103;52.246;8.052;2023-02-26T08:08:24;2.23;;;0.90;;
31482;SDS011;18103;52.246;8.052;2023-02-26T08:10:50;6.17;;;0.80;;
31482;SDS011;18103;52.246;8.052;2023-02-26T08:13:15;1.87;;;0.93;;
31482;SDS011;18103;52.246;8.052;2023-02-26T08:15:41;2.30;;;0.73;;
31482;SDS011;18103;52.246;8.052;2023-02-26T08:18:08;2.30;;;0.87;;
31482;SDS011;18103;52.246;8.052;2023-02-26T08:20:34;7.90;;;0.80;;
31482;SDS011;18103;52.246;8.052;2023-02-26T08:22:59;3.07;;;1.00;;
31482;SDS011;18103;52.246;8.052;2023-02-26T08:25:25;0.80;;;0.77;;
31482;SDS011;18103;52.246;8.052;2023-02-26T08:27:50;2.63;;;1.07;;
31482;SDS011;18103;52.246;8.052;2023-02-26T08:30:16;2.77;;;0.87;;
31482;SDS011;18103;52.246;8.052;2023-02-26T08:32:42;2.93;;;0.97;;
31482;SDS011;18103;52.246;8.052;2023-02-26T08:35:08;1.63;;;0.90;;
31482;SDS011;18103;52.246;8.052;2023-02-26T08:37:34;5.17;;;0.93;;
31482;SDS011;18103;52.246;8.052;2023-02-26T08:39:59;2.77;;;0.80;;
31482;SDS011;18103;52.246;8.052;2023-02-26T08:42:25;4.97;;;0.73;;
31482;SDS011;18103;52.246;8.052;2023-02-26T08:44:50;4.00;;;0.80;;
31482;SDS011;18103;52.246;8.052;2023-02-26T08:47:15;7.57;;;0.90;;
31482;SDS011;18103;52.246;8.052;2023-02-26T08:49:41;1.20;;;0.57;;
31482;SDS011;18103;52.246;8.052;2023-02-26T08:52:07;5.77;;;1.00;;
31482;SDS011;18103;52.246;8.052;2023-02-26T08:54:32;3.87;;;1.10;;
31482;SDS011;18103;52.246;8.052;2023-02-26T08:56:58;3.13;;;0.80;;
31482;SDS011;18103;52.246;8.052;2023-02-26T08:59:24;5.30;;;0.90;;
31482;SDS011;18103;52.246;8.052;2023-02-26T09:01:49;5.30;;;0.97;;
31482;SDS011;18103;52.246;8.052;2023-02-26T09:04:15;1.00;;;0.73;;
31482;SDS011;18103;52.246;8.052;2023-02-26T09:06:41;1.00;;;0.70;;
31482;SDS011;18103;52.246;8.052;2023-02-26T09:09:06;0.97;;;0.80;;
31482;SDS011;18103;52.246;8.052;2023-02-26T09:11:32;4.83;;;1.27;;
31482;SDS011;18103;52.246;8.052;2023-02-26T09:13:58;4.10;;;0.40;;
31482;SDS011;18103;52.246;8.052;2023-02-26T09:16:23;2.37;;;0.67;;
31482;SDS011;18103;52.246;8.052;2023-02-26T09:18:49;3.27;;;1.03;;
31482;SDS011;18103;52.246;8.052;2023-02-26T09:21:14;2.33;;;0.90;;
31482;SDS011;18103;52.246;8.052;2023-02-26T09:23:40;3.03;;;0.93;;
31482;SDS011;18103;52.246;8.052;2023-02-26T09:26:05;1.27;;;0.67;;
31482;SDS011;18103;52.246;8.052;2023-02-26T09:28:32;1.43;;;0.60;;
31482;SDS011;18103;52.246;8.052;2023-02-26T09:30:58;0.50;;;0.50;;
31482;SDS011;18103;52.246;8.052;2023-02-26T09:33:24;1.20;;;0.67;;
31482;SDS011;18103;52.246;8.052;2023-02-26T09:35:49;5.80;;;0.83;;
31482;SDS011;18103;52.246;8.052;2023-02-26T09:38:16;0.50;;;0.50;;
31482;SDS011;18103;52.246;8.052;2023-02-26T09:52:11;3.77;;;0.87;;
31482;SDS011;18103;52.246;8.052;2023-02-26T09:54:58;9.37;;;0.90;;
31482;SDS011;18103;52.246;8.052;2023-02-26T09:57:30;3.57;;;0.80;;
31482;SDS011;18103;52.246;8.052;2023-02-26T10:00:05;4.83;;;0.70;;
31482;SDS011;18103;52.246;8.052;2023-02-26T10:13:30;6.10;;;0.73;;
31482;SDS011;18103;52.246;8.052;2023-02-26T10:16:19;1.40;;;0.50;;
31482;SDS011;18103;52.246;8.052;2023-02-26T10:18:51;3.50;;;0.40;;
31482;SDS011;18103;52.246;8.052;2023-02-26T10:21:24;1.67;;;0.60;;
31482;SDS011;18103;52.246;8.052;2023-02-26T10:23:55;1.77;;;0.70;;
31482;SDS011;18103;52.246;8.052;2023-02-26T10:26:23;2.07;;;0.57;;
31482;SDS011;18103;52.246;8.052;2023-02-26T10:35:02;0.53;;;0.40;;
31482;SDS011;18103;52.246;8.052;2023-02-26T10:40:21;0.40;;;0.40;;
31482;SDS011;18103;52.246;8.052;2023-02-26T10:42:58;2.33;;;0.40;;
31482;SDS011;18103;52.246;8.052;2023-02-26T10:51:18;1.27;;;1.00;;
31482;SDS011;18103;52.246;8.052;2023-02-26T10:53:50;1.80;;;0.43;;
31482;SDS011;18103;52.246;8.052;2023-02-26T10:56:22;1.60;;;0.77;;
31482;SDS011;18103;52.246;8.052;2023-02-26T10:58:51;5.23;;;0.73;;
31482;SDS011;18103;52.246;8.052;2023-02-26T11:01:18;4.43;;;0.80;;
31482;SDS011;18103;52.246;8.052;2023-02-26T11:03:48;4.57;;;0.80;;
31482;SDS011;18103;52.246;8.052;2023-02-26T11:06:20;1.60;;;0.57;;
31482;SDS011;18103;52.246;8.052;2023-02-26T11:08:53;2.67;;;0.60;;
31482;SDS011;18103;52.246;8.052;2023-02-26T11:11:36;0.53;;;0.40;;
31482;SDS011;18103;52.246;8.052;2023-02-26T11:14:15;1.50;;;0.60;;
31482;SDS011;18103;52.246;8.052;2023-02-26T11:16:42;3.90;;;0.80;;
31482;SDS011;18103;52.246;8.052;2023-02-26T11:19:14;0.90;;;0.57;;
31482;SDS011;18103;52.246;8.052;2023-02-26T11:21:42;2.13;;;0.60;;
31482;SDS011;18103;52.246;8.052;2023-02-26T11:26:38;0.87;;;0.47;;
31482;SDS011;18103;52.246;8.052;2023-02-26T11:29:11;0.57;;;0.53;;
31482;SDS011;18103;52.246;8.052;2023-02-26T11:31:39;7.53;;;0.93;;
31482;SDS011;18103;52.246;8.052;2023-02-26T11:34:07;3.70;;;0.60;;
31482;SDS011;18103;52.246;8.052;2023-02-26T11:36:36;1.20;;;0.60;;
31482;SDS011;18103;52.246;8.052;2023-02-26T11:39:07;5.40;;;0.70;;
31482;SDS011;18103;52.246;8.052;2023-02-26T11:41:39;2.77;;;0.60;;
31482;SDS011;18103;52.246;8.052;2023-02-26T11:44:12;3.83;;;0.63;;
31482;SDS011;18103;52.246;8.052;2023-02-26T11:46:52;1.03;;;0.60;;
31482;SDS011;18103;52.246;8.052;2023-02-26T11:49:21;4.00;;;0.87;;
31482;SDS011;18103;52.246;8.052;2023-02-26T11:55:02;1.70;;;0.60;;
31482;SDS011;18103;52.246;8.052;2023-02-26T11:57:30;1.67;;;0.80;;
31482;SDS011;18103;52.246;8.052;2023-02-26T11:59:57;1.30;;;0.63;;
31482;SDS011;18103;52.246;8.052;2023-02-26T12:02:25;4.37;;;0.80;;
31482;SDS011;18103;52.246;8.052;2023-02-26T12:04:56;1.40;;;0.60;;
31482;SDS011;18103;52.246;8.052;2023-02-26T12:07:26;2.50;;;0.80;;
31482;SDS011;18103;52.246;8.052;2023-02-26T12:09:54;2.40;;;0.80;;
31482;SDS011;18103;52.246;8.052;2023-02-26T12:12:36;5.83;;;0.90;;
31482;SDS011;18103;52.246;8.052;2023-02-26T12:18:18;0.97;;;0.40;;
31482;SDS011;18103;52.246;8.052;2023-02-26T12:21:01;3.83;;;0.60;;
31482;SDS011;18103;52.246;8.052;2023-02-26T12:23:36;3.10;;;0.90;;
31482;SDS011;18103;52.246;8.052;2023-02-26T12:51:14;1.10;;;0.80;;
31482;SDS011;18103;52.246;8.052;2023-02-26T12:54:02;4.53;;;0.70;;
31482;SDS011;18103;52.246;8.052;2023-02-26T12:59:47;2.03;;;0.47;;
31482;SDS011;18103;52.246;8.052;2023-02-26T13:16:10;0.57;;;0.40;;
31482;SDS011;18103;52.246;8.052;2023-02-26T13:21:31;0.60;;;0.53;;
31482;SDS011;18103;52.246;8.052;2023-02-26T13:24:09;1.60;;;0.43;;
31482;SDS011;18103;52.246;8.052;2023-02-26T13:26:39;0.70;;;0.50;;
31482;SDS011;18103;52.246;8.052;2023-02-26T13:29:11;1.47;;;0.67;;
31482;SDS011;18103;52.246;8.052;2023-02-26T13:34:56;1.97;;;0.50;;
31482;SDS011;18103;52.246;8.052;2023-02-26T13:37:26;2.80;;;0.50;;
31482;SDS011;18103;52.246;8.052;2023-02-26T13:40:04;0.87;;;0.50;;
31482;SDS011;18103;52.246;8.052;2023-02-26T13:43:15;0.70;;;0.50;;
31482;SDS011;18103;52.246;8.052;2023-02-26T14:06:52;4.10;;;0.87;;
31482;SDS011;18103;52.246;8.052;2023-02-26T14:16:52;1.07;;;0.70;;
31482;SDS011;18103;52.246;8.052;2023-02-26T14:19:36;3.90;;;0.60;;
31482;SDS011;18103;52.246;8.052;2023-02-26T14:25:14;1.17;;;0.50;;
31482;SDS011;18103;52.246;8.052;2023-02-26T14:27:42;3.03;;;0.77;;
31482;SDS011;18103;52.246;8.052;2023-02-26T14:32:52;1.90;;;0.50;;
31482;SDS011;18103;52.246;8.052;2023-02-26T14:35:22;2.63;;;0.70;;
31482;SDS011;18103;52.246;8.052;2023-02-26T14:38:11;0.67;;;0.40;;
31482;SDS011;18103;52.246;8.052;2023-02-26T14:40:54;1.27;;;0.50;;
31482;SDS011;18103;52.246;8.052;2023-02-26T14:43:39;4.83;;;0.60;;
31482;SDS011;18103;52.246;8.052;2023-02-26T14:46:07;0.87;;;0.60;;
31482;SDS011;18103;52.246;8.052;2023-02-26T14:48:35;1.93;;;0.57;;
31482;SDS011;18103;52.246;8.052;2023-02-26T15:07:14;0.90;;;0.60;;
31482;SDS011;18103;52.246;8.052;2023-02-26T15:18:17;1.33;;;0.70;;
31482;SDS011;18103;52.246;8.052;2023-02-26T15:24:04;0.63;;;0.63;;
31482;SDS011;18103;52.246;8.052;2023-02-26T15:26:33;4.60;;;1.33;;
31482;SDS011;18103;52.246;8.052;2023-02-26T15:29:02;2.37;;;0.90;;
31482;SDS011;18103;52.246;8.052;2023-02-26T15:31:33;3.13;;;0.87;;
31482;SDS011;18103;52.246;8.052;2023-02-26T15:34:00;2.17;;;0.90;;
31482;SDS011;18103;52.246;8.052;2023-02-26T15:36:27;4.50;;;1.20;;
31482;SDS011;18103;52.246;8.052;2023-02-26T15:38:56;1.77;;;1.00;;
31482;SDS011;18103;52.246;8.052;2023-02-26T15:41:26;3.20;;;1.20;;
31482;SDS011;18103;52.246;8.052;2023-02-26T15:43:58;0.93;;;0.87;;
31482;SDS011;18103;52.246;8.052;2023-02-26T15:46:31;3.33;;;1.20;;
31482;SDS011;18103;52.246;8.052;2023-02-26T15:49:12;0.90;;;0.83;;
31482;SDS011;18103;52.246;8.052;2023-02-26T15:51:44;3.83;;;0.90;;
31482;SDS011;18103;52.246;8.052;2023-02-26T15:54:15;2.37;;;0.87;;
31482;SDS011;18103;52.246;8.052;2023-02-26T15:56:43;3.73;;;1.10;;
31482;SDS011;18103;52.246;8.052;2023-02-26T16:01:49;5.60;;;1.70;;
31482;SDS011;18103;52.246;8.052;2023-02-26T16:04:16;2.57;;;1.20;;
31482;SDS011;18103;52.246;8.052;2023-02-26T16:07:02;2.17;;;1.27;;
31482;SDS011;18103;52.246;8.052;2023-02-26T16:12:05;1.10;;;0.90;;
31482;SDS011;18103;52.246;8.052;2023-02-26T16:14:35;5.80;;;1.40;;
31482;SDS011;18103;52.246;8.052;2023-02-26T16:17:03;1.53;;;0.90;;
31482;SDS011;18103;52.246;8.052;2023-02-26T16:19:34;4.77;;;1.17;;
31482;SDS011;18103;52.246;8.052;2023-02-26T16:22:10;1.13;;;0.90;;
31482;SDS011;18103;52.246;8.052;2023-02-26T16:24:36;1.83;;;1.10;;
31482;SDS011;18103;52.246;8.052;2023-02-26T16:27:03;3.47;;;1.00;;
31482;SDS011;18103;52.246;8.052;2023-02-26T16:29:32;0.80;;;0.80;;
31482;SDS011;18103;52.246;8.052;2023-02-26T16:32:01;1.73;;;0.90;;
31482;SDS011;18103;52.246;8.052;2023-02-26T16:36:57;2.43;;;0.83;;
31482;SDS011;18103;52.246;8.052;2023-02-26T16:39:23;4.77;;;1.00;;
31482;SDS011;18103;52.246;8.052;2023-02-26T16:42:02;1.73;;;0.70;;
31482;SDS011;18103;52.246;8.052;2023-02-26T16:44:36;2.37;;;0.80;;
31482;SDS011;18103;52.246;8.052;2023-02-26T16:47:08;1.37;;;0.70;;
31482;SDS011;18103;52.246;8.052;2023-02-26T16:49:35;3.93;;;1.07;;
31482;SDS011;18103;52.246;8.052;2023-02-26T16:52:04;3.20;;;0.70;;
31482;SDS011;18103;52.246;8.052;2023-02-26T16:54:37;3.80;;;1.83;;
31482;SDS011;18103;52.246;8.052;2023-02-26T16:57:12;6.30;;;1.53;;
31482;SDS011;18103;52.246;8.052;2023-02-26T16:59:55;2.10;;;1.33;;
31482;SDS011;18103;52.246;8.052;2023-02-26T17:02:26;5.87;;;2.17;;
31482;SDS011;18103;52.246;8.052;2023-02-26T17:05:00;3.00;;;1.77;;
31482;SDS011;18103;52.246;8.052;2023-02-26T17:07:31;4.43;;;1.97;;
31482;SDS011;18103;52.246;8.052;2023-02-26T17:10:01;5.37;;;1.93;;
31482;SDS011;18103;52.246;8.052;2023-02-26T17:12:44;1.70;;;1.40;;
31482;SDS011;18103;52.246;8.052;2023-02-26T17:15:19;4.67;;;1.43;;
31482;SDS011;18103;52.246;8.052;2023-02-26T17:17:51;2.70;;;1.30;;
31482;SDS011;18103;52.246;8.052;2023-02-26T17:20:20;1.57;;;1.20;;
31482;SDS011;18103;52.246;8.052;2023-02-26T17:22:47;2.13;;;1.20;;
31482;SDS011;18103;52.246;8.052;2023-02-26T17:25:14;3.23;;;1.67;;
31482;SDS011;18103;52.246;8.052;2023-02-26T17:27:40;4.13;;;2.03;;
31482;SDS011;18103;52.246;8.052;2023-02-26T17:30:07;2.20;;;1.23;;
31482;SDS011;18103;52.246;8.052;2023-02-26T17:32:33;3.47;;;1.80;;
31482;SDS011;18103;52.246;8.052;2023-02-26T17:35:00;5.63;;;1.80;;
31482;SDS011;18103;52.246;8.052;2023-02-26T17:37:30;5.40;;;2.53;;
31482;SDS011;18103;52.246;8.052;2023-02-26T17:39:57;5.53;;;1.93;;
31482;SDS011;18103;52.246;8.052;2023-02-26T17:42:24;7.70;;;2.17;;
31482;SDS011;18103;52.246;8.052;2023-02-26T17:44:49;1.93;;;1.40;;
31482;SDS011;18103;52.246;8.052;2023-02-26T17:47:17;1.80;;;1.60;;
31482;SDS011;18103;52.246;8.052;2023-02-26T17:49:44;4.30;;;2.10;;
31482;SDS011;18103;52.246;8.052;2023-02-26T17:52:10;3.53;;;1.70;;
31482;SDS011;18103;52.246;8.052;2023-02-26T17:54:36;3.17;;;1.83;;
31482;SDS011;18103;52.246;8.052;2023-02-26T17:57:01;3.37;;;2.00;;
31482;SDS011;18103;52.246;8.052;2023-02-26T17:59:27;5.23;;;2.77;;
31482;SDS011;18103;52.246;8.052;2023-02-26T18:01:53;5.33;;;2.17;;
31482;SDS011;18103;52.246;8.052;2023-02-26T18:04:18;4.27;;;1.57;;
31482;SDS011;18103;52.246;8.052;2023-02-26T18:06:44;2.00;;;1.40;;
31482;SDS011;18103;52.246;8.052;2023-02-26T18:09:09;3.23;;;1.40;;
31482;SDS011;18103;52.246;8.052;2023-02-26T18:11:36;4.77;;;1.20;;
31482;SDS011;18103;52.246;8.052;2023-02-26T18:14:02;2.57;;;1.23;;
31482;SDS011;18103;52.246;8.052;2023-02-26T18:16:30;3.03;;;1.37;;
31482;SDS011;18103;52.246;8.052;2023-02-26T18:18:58;1.83;;;1.73;;
31482;SDS011;18103;52.246;8.052;2023-02-26T18:21:25;3.63;;;1.77;;
31482;SDS011;18103;52.246;8.052;2023-02-26T18:23:51;3.53;;;2.07;;
31482;SDS011;18103;52.246;8.052;2023-02-26T18:26:20;5.10;;;2.23;;
31482;SDS011;18103;52.246;8.052;2023-02-26T18:28:47;9.47;;;3.07;;
31482;SDS011;18103;52.246;8.052;2023-02-26T18:31:14;10.70;;;3.33;;
31482;SDS011;18103;52.246;8.052;2023-02-26T18:33:39;8.77;;;3.17;;
31482;SDS011;18103;52.246;8.052;2023-02-26T18:36:08;7.70;;;3.57;;
31482;SDS011;18103;52.246;8.052;2023-02-26T18:38:43;6.17;;;3.80;;
31482;SDS011;18103;52.246;8.052;2023-02-26T18:41:08;7.50;;;3.60;;
31482;SDS011;18103;52.246;8.052;2023-02-26T18:43:34;10.03;;;2.87;;